sensor_id;sensor_type;location;lat;lon;timestamp;temperature;humidity
57652;DHT22;43480;53.116;6.734;2023-01-25T00:00:36;1.10;99.90
57652;DHT22;43480;53.116;6.734;2023-01-25T00:03:02;1.10;99.90
57652;DHT22;43480;53.116;6.734;2023-01-25T00:05:27;1.10;99.90
57652;DHT22;43480;53.116;6.734;2023-01-25T00:07:53;1.10;99.90
57652;DHT22;43480;53.116;6.734;2023-01-25T00:10:19;1.10;99.90
57652;DHT22;43480;53.116;6.734;2023-01-25T00:12:44;1.10;99.90
57652;DHT22;43480;53.116;6.734;2023-01-25T00:15:10;1.00;99.90
57652;DHT22;43480;53.116;6.734;2023-01-25T00:17:36;1.10;99.90
57652;DHT22;43480;53.116;6.734;2023-01-25T00:20:01;1.10;99.90
57652;DHT22;43480;53.116;6.734;2023-01-25T00:22:27;1.00;99.90
57652;DHT22;43480;53.116;6.734;2023-01-25T00:24:53;1.00;99.90
57652;DHT22;43480;53.116;6.734;2023-01-25T00:27:18;1.00;99.90
57652;DHT22;43480;53.116;6.734;2023-01-25T00:29:44;1.00;99.90
57652;DHT22;43480;53.116;6.734;2023-01-25T00:37:13;1.00;99.90
57652;DHT22;43480;53.116;6.734;2023-01-25T00:39:42;1.00;99.90
57652;DHT22;43480;53.116;6.734;2023-01-25T00:42:12;1.00;99.90
57652;DHT22;43480;53.116;6.734;2023-01-25T00:44:38;1.00;99.90
57652;DHT22;43480;53.116;6.734;2023-01-25T00:47:04;1.00;99.90
57652;DHT22;43480;53.116;6.734;2023-01-25T00:49:30;1.00;99.90
57652;DHT22;43480;53.116;6.734;2023-01-25T00:51:56;0.90;99.90
57652;DHT22;43480;53.116;6.734;2023-01-25T00:54:22;0.90;99.90
57652;DHT22;43480;53.116;6.734;2023-01-25T00:56:48;0.90;99.90
57652;DHT22;43480;53.116;6.734;2023-01-25T00:59:14;0.90;99.90
57652;DHT22;43480;53.116;6.734;2023-01-25T01:01:40;0.90;99.90
57652;DHT22;43480;53.116;6.734;2023-01-25T01:04:06;0.90;99.90
57652;DHT22;43480;53.116;6.734;2023-01-25T01:06:34;0.90;99.90
57652;DHT22;43480;53.116;6.734;2023-01-25T01:08:59;0.90;99.90
57652;DHT22;43480;53.116;6.734;2023-01-25T01:11:25;0.90;99.90
57652;DHT22;43480;53.116;6.734;2023-01-25T01:13:51;0.90;99.90
57652;DHT22;43480;53.116;6.734;2023-01-25T01:16:16;0.90;99.90
57652;DHT22;43480;53.116;6.734;2023-01-25T01:18:42;0.90;99.90
57652;DHT22;43480;53.116;6.734;2023-01-25T01:21:09;0.90;99.90
57652;DHT22;43480;53.116;6.734;2023-01-25T01:23:34;0.80;99.90
57652;DHT22;43480;53.116;6.734;2023-01-25T01:26:03;0.80;99.90
57652;DHT22;43480;53.116;6.734;2023-01-25T01:28:30;0.80;99.90
57652;DHT22;43480;53.116;6.734;2023-01-25T01:30:59;0.80;99.90
57652;DHT22;43480;53.116;6.734;2023-01-25T01:33:24;0.80;99.90
57652;DHT22;43480;53.116;6.734;2023-01-25T01:35:50;0.70;99.90
57652;DHT22;43480;53.116;6.734;2023-01-25T01:38:15;0.70;99.90
57652;DHT22;43480;53.116;6.734;2023-01-25T01:40:44;0.70;99.90
57652;DHT22;43480;53.116;6.734;2023-01-25T01:43:22;0.70;99.90
57652;DHT22;43480;53.116;6.734;2023-01-25T01:45:50;0.70;99.90
57652;DHT22;43480;53.116;6.734;2023-01-25T01:50:49;0.70;99.90
57652;DHT22;43480;53.116;6.734;2023-01-25T01:53:17;0.70;99.90
57652;DHT22;43480;53.116;6.734;2023-01-25T01:55:43;0.80;99.90
57652;DHT22;43480;53.116;6.734;2023-01-25T01:58:08;0.80;99.90
57652;DHT22;43480;53.116;6.734;2023-01-25T02:00:35;0.80;99.90
57652;DHT22;43480;53.116;6.734;2023-01-25T02:03:02;0.70;99.90
57652;DHT22;43480;53.116;6.734;2023-01-25T02:05:47;0.70;99.90
57652;DHT22;43480;53.116;6.734;2023-01-25T02:08:15;0.70;99.90
57652;DHT22;43480;53.116;6.734;2023-01-25T02:10:41;0.70;99.90
57652;DHT22;43480;53.116;6.734;2023-01-25T02:13:08;0.70;99.90
57652;DHT22;43480;53.116;6.734;2023-01-25T02:15:37;0.70;99.90
57652;DHT22;43480;53.116;6.734;2023-01-25T02:18:04;0.70;99.90
57652;DHT22;43480;53.116;6.734;2023-01-25T02:20:37;0.70;99.90
57652;DHT22;43480;53.116;6.734;2023-01-25T02:25:31;0.70;99.90
57652;DHT22;43480;53.116;6.734;2023-01-25T02:28:02;0.70;99.90
57652;DHT22;43480;53.116;6.734;2023-01-25T02:30:29;0.80;99.90
57652;DHT22;43480;53.116;6.734;2023-01-25T02:32:55;0.70;99.90
57652;DHT22;43480;53.116;6.734;2023-01-25T02:35:22;0.70;99.90
57652;DHT22;43480;53.116;6.734;2023-01-25T02:37:48;0.70;99.90
57652;DHT22;43480;53.116;6.734;2023-01-25T02:40:17;0.70;99.90
57652;DHT22;43480;53.116;6.734;2023-01-25T02:42:43;0.70;99.90
57652;DHT22;43480;53.116;6.734;2023-01-25T02:45:10;0.70;99.90
57652;DHT22;43480;53.116;6.734;2023-01-25T02:47:37;0.70;99.90
57652;DHT22;43480;53.116;6.734;2023-01-25T02:50:03;0.60;99.90
57652;DHT22;43480;53.116;6.734;2023-01-25T02:52:29;0.60;99.90
57652;DHT22;43480;53.116;6.734;2023-01-25T02:54:54;0.60;99.90
57652;DHT22;43480;53.116;6.734;2023-01-25T02:57:20;0.60;99.90
57652;DHT22;43480;53.116;6.734;2023-01-25T02:59:45;0.60;99.90
57652;DHT22;43480;53.116;6.734;2023-01-25T03:02:11;0.60;99.90
57652;DHT22;43480;53.116;6.734;2023-01-25T03:04:36;0.50;99.90
57652;DHT22;43480;53.116;6.734;2023-01-25T03:07:02;0.50;99.90
57652;DHT22;43480;53.116;6.734;2023-01-25T03:09:28;0.50;99.90
57652;DHT22;43480;53.116;6.734;2023-01-25T03:11:54;0.50;99.90
57652;DHT22;43480;53.116;6.734;2023-01-25T03:14:19;0.50;99.90
57652;DHT22;43480;53.116;6.734;2023-01-25T03:16:45;0.50;99.90
57652;DHT22;43480;53.116;6.734;2023-01-25T03:19:10;0.50;99.90
57652;DHT22;43480;53.116;6.734;2023-01-25T03:21:36;0.50;99.90
57652;DHT22;43480;53.116;6.734;2023-01-25T03:24:01;0.50;99.90
57652;DHT22;43480;53.116;6.734;2023-01-25T03:26:27;0.50;99.90
57652;DHT22;43480;53.116;6.734;2023-01-25T03:28:53;0.50;99.90
57652;DHT22;43480;53.116;6.734;2023-01-25T03:31:19;0.50;99.90
57652;DHT22;43480;53.116;6.734;2023-01-25T03:33:44;0.40;99.90
57652;DHT22;43480;53.116;6.734;2023-01-25T03:36:10;0.40;99.90
57652;DHT22;43480;53.116;6.734;2023-01-25T03:38:36;0.40;99.90
57652;DHT22;43480;53.116;6.734;2023-01-25T03:41:02;0.40;99.90
57652;DHT22;43480;53.116;6.734;2023-01-25T03:43:28;0.40;99.90
57652;DHT22;43480;53.116;6.734;2023-01-25T03:45:54;0.30;99.90
57652;DHT22;43480;53.116;6.734;2023-01-25T03:48:20;0.30;99.90
57652;DHT22;43480;53.116;6.734;2023-01-25T03:50:50;0.40;99.90
57652;DHT22;43480;53.116;6.734;2023-01-25T03:53:15;0.40;99.90
57652;DHT22;43480;53.116;6.734;2023-01-25T03:56:09;0.30;99.90
57652;DHT22;43480;53.116;6.734;2023-01-25T03:58:38;0.30;99.90
57652;DHT22;43480;53.116;6.734;2023-01-25T04:01:05;0.30;99.90
57652;DHT22;43480;53.116;6.734;2023-01-25T04:03:31;0.30;99.90
57652;DHT22;43480;53.116;6.734;2023-01-25T04:05:56;0.30;99.90
57652;DHT22;43480;53.116;6.734;2023-01-25T04:08:22;0.30;99.90
57652;DHT22;43480;53.116;6.734;2023-01-25T04:10:56;0.30;99.90
57652;DHT22;43480;53.116;6.734;2023-01-25T04:13:22;0.30;99.90
57652;DHT22;43480;53.116;6.734;2023-01-25T04:15:48;0.30;99.90
57652;DHT22;43480;53.116;6.734;2023-01-25T04:18:14;0.30;99.90
57652;DHT22;43480;53.116;6.734;2023-01-25T04:20:40;0.40;99.90
57652;DHT22;43480;53.116;6.734;2023-01-25T04:23:06;0.40;99.90
57652;DHT22;43480;53.116;6.734;2023-01-25T04:25:32;0.40;99.90
57652;DHT22;43480;53.116;6.734;2023-01-25T04:27:57;0.40;99.90
57652;DHT22;43480;53.116;6.734;2023-01-25T04:30:23;0.40;99.90
57652;DHT22;43480;53.116;6.734;2023-01-25T04:32:49;0.40;99.90
57652;DHT22;43480;53.116;6.734;2023-01-25T04:35:14;0.40;99.90
57652;DHT22;43480;53.116;6.734;2023-01-25T04:37:40;0.40;99.90
57652;DHT22;43480;53.116;6.734;2023-01-25T04:40:09;0.40;99.90
57652;DHT22;43480;53.116;6.734;2023-01-25T04:42:34;0.40;99.90
57652;DHT22;43480;53.116;6.734;2023-01-25T04:45:00;0.50;99.90
57652;DHT22;43480;53.116;6.734;2023-01-25T04:47:25;0.40;99.90
57652;DHT22;43480;53.116;6.734;2023-01-25T04:49:51;0.40;99.90
57652;DHT22;43480;53.116;6.734;2023-01-25T04:52:16;0.40;99.90
57652;DHT22;43480;53.116;6.734;2023-01-25T04:54:42;0.30;99.90
57652;DHT22;43480;53.116;6.734;2023-01-25T04:57:07;0.30;99.90
57652;DHT22;43480;53.116;6.734;2023-01-25T04:59:33;0.20;99.90
57652;DHT22;43480;53.116;6.734;2023-01-25T05:01:59;0.10;99.90
57652;DHT22;43480;53.116;6.734;2023-01-25T05:04:24;0.20;99.90
57652;DHT22;43480;53.116;6.734;2023-01-25T05:06:50;0.10;99.90
57652;DHT22;43480;53.116;6.734;2023-01-25T05:09:15;0.00;99.90
57652;DHT22;43480;53.116;6.734;2023-01-25T05:11:41;0.00;99.90
57652;DHT22;43480;53.116;6.734;2023-01-25T05:14:07;0.00;99.90
57652;DHT22;43480;53.116;6.734;2023-01-25T05:16:33;0.00;99.90
57652;DHT22;43480;53.116;6.734;2023-01-25T05:18:58;0.00;99.90
57652;DHT22;43480;53.116;6.734;2023-01-25T05:21:24;0.00;99.90
57652;DHT22;43480;53.116;6.734;2023-01-25T05:24:08;0.00;99.90
57652;DHT22;43480;53.116;6.734;2023-01-25T05:26:34;0.00;99.90
57652;DHT22;43480;53.116;6.734;2023-01-25T05:29:26;0.00;99.90
57652;DHT22;43480;53.116;6.734;2023-01-25T05:31:52;0.00;99.90
57652;DHT22;43480;53.116;6.734;2023-01-25T05:34:18;0.00;99.90
57652;DHT22;43480;53.116;6.734;2023-01-25T05:36:43;0.00;99.90
57652;DHT22;43480;53.116;6.734;2023-01-25T05:39:09;-0.10;99.90
57652;DHT22;43480;53.116;6.734;2023-01-25T05:41:34;0.00;99.90
57652;DHT22;43480;53.116;6.734;2023-01-25T05:44:00;0.00;99.90
57652;DHT22;43480;53.116;6.734;2023-01-25T05:46:26;0.00;99.90
57652;DHT22;43480;53.116;6.734;2023-01-25T05:48:51;0.00;99.90
57652;DHT22;43480;53.116;6.734;2023-01-25T05:51:17;0.10;99.90
57652;DHT22;43480;53.116;6.734;2023-01-25T05:53:42;0.10;99.90
57652;DHT22;43480;53.116;6.734;2023-01-25T05:56:08;0.10;99.90
57652;DHT22;43480;53.116;6.734;2023-01-25T05:58:35;0.10;99.90
57652;DHT22;43480;53.116;6.734;2023-01-25T06:01:01;0.10;99.90
57652;DHT22;43480;53.116;6.734;2023-01-25T06:03:27;0.10;99.90
57652;DHT22;43480;53.116;6.734;2023-01-25T06:05:56;0.20;99.90
57652;DHT22;43480;53.116;6.734;2023-01-25T06:08:22;0.20;99.90
57652;DHT22;43480;53.116;6.734;2023-01-25T06:10:48;0.20;99.90
57652;DHT22;43480;53.116;6.734;2023-01-25T06:13:13;0.20;99.90
57652;DHT22;43480;53.116;6.734;2023-01-25T06:15:39;0.20;99.90
57652;DHT22;43480;53.116;6.734;2023-01-25T06:18:04;0.20;99.90
57652;DHT22;43480;53.116;6.734;2023-01-25T06:20:30;0.20;99.90
57652;DHT22;43480;53.116;6.734;2023-01-25T06:22:56;0.20;99.90
57652;DHT22;43480;53.116;6.734;2023-01-25T06:25:21;0.20;99.90
57652;DHT22;43480;53.116;6.734;2023-01-25T06:27:47;0.20;99.90
57652;DHT22;43480;53.116;6.734;2023-01-25T06:30:12;0.20;99.90
57652;DHT22;43480;53.116;6.734;2023-01-25T06:32:38;0.20;99.90
57652;DHT22;43480;53.116;6.734;2023-01-25T06:35:03;0.20;99.90
57652;DHT22;43480;53.116;6.734;2023-01-25T06:37:29;0.10;99.90
57652;DHT22;43480;53.116;6.734;2023-01-25T06:39:55;0.10;99.90
57652;DHT22;43480;53.116;6.734;2023-01-25T06:42:22;0.00;99.90
57652;DHT22;43480;53.116;6.734;2023-01-25T06:44:48;0.00;99.90
57652;DHT22;43480;53.116;6.734;2023-01-25T06:47:13;-0.10;99.90
57652;DHT22;43480;53.116;6.734;2023-01-25T06:49:39;-0.10;99.90
57652;DHT22;43480;53.116;6.734;2023-01-25T06:52:05;-0.20;99.90
57652;DHT22;43480;53.116;6.734;2023-01-25T06:54:30;-0.10;99.90
57652;DHT22;43480;53.116;6.734;2023-01-25T06:56:56;-0.20;99.90
57652;DHT22;43480;53.116;6.734;2023-01-25T06:59:21;-0.20;99.90
57652;DHT22;43480;53.116;6.734;2023-01-25T07:01:47;-0.20;99.90
57652;DHT22;43480;53.116;6.734;2023-01-25T07:04:12;-0.20;99.90
57652;DHT22;43480;53.116;6.734;2023-01-25T07:06:38;-0.20;99.90
57652;DHT22;43480;53.116;6.734;2023-01-25T07:09:05;-0.20;99.90
57652;DHT22;43480;53.116;6.734;2023-01-25T07:11:31;-0.20;99.90
57652;DHT22;43480;53.116;6.734;2023-01-25T07:13:56;-0.20;99.90
57652;DHT22;43480;53.116;6.734;2023-01-25T07:16:22;-0.20;99.90
57652;DHT22;43480;53.116;6.734;2023-01-25T07:18:48;-0.20;99.90
57652;DHT22;43480;53.116;6.734;2023-01-25T07:21:14;-0.20;99.90
57652;DHT22;43480;53.116;6.734;2023-01-25T07:23:40;-0.20;99.90
57652;DHT22;43480;53.116;6.734;2023-01-25T07:26:10;-0.20;99.90
57652;DHT22;43480;53.116;6.734;2023-01-25T07:28:38;-0.20;99.90
57652;DHT22;43480;53.116;6.734;2023-01-25T07:31:04;-0.20;99.90
57652;DHT22;43480;53.116;6.734;2023-01-25T07:33:30;-0.20;99.90
57652;DHT22;43480;53.116;6.734;2023-01-25T07:36:00;-0.20;99.90
57652;DHT22;43480;53.116;6.734;2023-01-25T07:38:26;-0.20;99.90
57652;DHT22;43480;53.116;6.734;2023-01-25T07:40:52;-0.20;99.90
57652;DHT22;43480;53.116;6.734;2023-01-25T07:43:17;-0.20;99.90
57652;DHT22;43480;53.116;6.734;2023-01-25T07:45:44;-0.20;99.90
57652;DHT22;43480;53.116;6.734;2023-01-25T07:48:13;-0.20;99.90
57652;DHT22;43480;53.116;6.734;2023-01-25T07:50:38;-0.20;99.90
57652;DHT22;43480;53.116;6.734;2023-01-25T07:53:06;-0.20;99.90
57652;DHT22;43480;53.116;6.734;2023-01-25T07:55:31;-0.20;99.90
57652;DHT22;43480;53.116;6.734;2023-01-25T07:57:57;-0.20;99.90
57652;DHT22;43480;53.116;6.734;2023-01-25T08:00:23;-0.30;99.90
57652;DHT22;43480;53.116;6.734;2023-01-25T08:02:49;-0.30;99.90
57652;DHT22;43480;53.116;6.734;2023-01-25T08:05:15;-0.30;99.90
57652;DHT22;43480;53.116;6.734;2023-01-25T08:07:40;-0.30;99.90
57652;DHT22;43480;53.116;6.734;2023-01-25T08:10:06;-0.30;99.90
57652;DHT22;43480;53.116;6.734;2023-01-25T08:12:32;-0.30;99.90
57652;DHT22;43480;53.116;6.734;2023-01-25T08:14:58;-0.30;99.90
57652;DHT22;43480;53.116;6.734;2023-01-25T08:17:24;-0.30;99.90
57652;DHT22;43480;53.116;6.734;2023-01-25T08:19:56;-0.30;99.90
57652;DHT22;43480;53.116;6.734;2023-01-25T08:22:22;-0.20;99.90
57652;DHT22;43480;53.116;6.734;2023-01-25T08:24:47;-0.20;99.90
57652;DHT22;43480;53.116;6.734;2023-01-25T08:27:14;-0.30;99.90
57652;DHT22;43480;53.116;6.734;2023-01-25T08:29:39;-0.30;99.90
57652;DHT22;43480;53.116;6.734;2023-01-25T08:32:05;-0.30;99.90
57652;DHT22;43480;53.116;6.734;2023-01-25T08:34:32;-0.30;99.90
57652;DHT22;43480;53.116;6.734;2023-01-25T08:36:57;-0.30;99.90
57652;DHT22;43480;53.116;6.734;2023-01-25T08:39:23;-0.40;99.90
57652;DHT22;43480;53.116;6.734;2023-01-25T08:41:49;-0.40;99.90
57652;DHT22;43480;53.116;6.734;2023-01-25T08:44:14;-0.40;99.90
57652;DHT22;43480;53.116;6.734;2023-01-25T08:46:40;-0.40;99.90
57652;DHT22;43480;53.116;6.734;2023-01-25T08:49:05;-0.40;99.90
57652;DHT22;43480;53.116;6.734;2023-01-25T08:51:32;-0.50;99.90
57652;DHT22;43480;53.116;6.734;2023-01-25T08:54:01;-0.40;99.90
57652;DHT22;43480;53.116;6.734;2023-01-25T08:56:27;-0.40;99.90
57652;DHT22;43480;53.116;6.734;2023-01-25T08:58:52;-0.50;99.90
57652;DHT22;43480;53.116;6.734;2023-01-25T09:01:18;-0.40;99.90
57652;DHT22;43480;53.116;6.734;2023-01-25T09:03:45;-0.40;99.90
57652;DHT22;43480;53.116;6.734;2023-01-25T09:06:11;-0.40;99.90
57652;DHT22;43480;53.116;6.734;2023-01-25T09:08:36;-0.40;99.90
57652;DHT22;43480;53.116;6.734;2023-01-25T09:11:03;-0.40;99.90
57652;DHT22;43480;53.116;6.734;2023-01-25T09:13:29;-0.40;99.90
57652;DHT22;43480;53.116;6.734;2023-01-25T09:15:58;-0.40;99.90
57652;DHT22;43480;53.116;6.734;2023-01-25T09:18:23;-0.30;99.90
57652;DHT22;43480;53.116;6.734;2023-01-25T09:20:49;-0.30;99.90
57652;DHT22;43480;53.116;6.734;2023-01-25T09:23:14;-0.30;99.90
57652;DHT22;43480;53.116;6.734;2023-01-25T09:25:40;-0.30;99.90
57652;DHT22;43480;53.116;6.734;2023-01-25T09:28:06;-0.20;99.90
57652;DHT22;43480;53.116;6.734;2023-01-25T09:30:36;-0.30;99.90
57652;DHT22;43480;53.116;6.734;2023-01-25T09:33:02;-0.30;99.90
57652;DHT22;43480;53.116;6.734;2023-01-25T09:35:29;-0.20;99.90
57652;DHT22;43480;53.116;6.734;2023-01-25T09:37:55;-0.20;99.90
57652;DHT22;43480;53.116;6.734;2023-01-25T09:40:21;-0.20;99.90
57652;DHT22;43480;53.116;6.734;2023-01-25T09:43:09;-0.20;99.90
57652;DHT22;43480;53.116;6.734;2023-01-25T09:45:34;-0.20;99.90
57652;DHT22;43480;53.116;6.734;2023-01-25T09:48:12;-0.20;99.90
57652;DHT22;43480;53.116;6.734;2023-01-25T09:50:50;-0.20;99.90
57652;DHT22;43480;53.116;6.734;2023-01-25T09:53:36;-0.20;99.90
57652;DHT22;43480;53.116;6.734;2023-01-25T09:56:07;-0.20;99.90
57652;DHT22;43480;53.116;6.734;2023-01-25T09:58:35;-0.20;99.90
57652;DHT22;43480;53.116;6.734;2023-01-25T10:03:57;-0.20;99.90
57652;DHT22;43480;53.116;6.734;2023-01-25T10:06:28;-0.20;99.90
57652;DHT22;43480;53.116;6.734;2023-01-25T10:11:40;-0.20;99.90
57652;DHT22;43480;53.116;6.734;2023-01-25T10:14:10;-0.20;99.90
57652;DHT22;43480;53.116;6.734;2023-01-25T10:17:20;-0.20;99.90
57652;DHT22;43480;53.116;6.734;2023-01-25T10:24:31;-0.10;99.90
57652;DHT22;43480;53.116;6.734;2023-01-25T10:27:06;-0.20;99.90
57652;DHT22;43480;53.116;6.734;2023-01-25T10:29:38;-0.10;99.90
57652;DHT22;43480;53.116;6.734;2023-01-25T10:32:11;-0.20;99.90
57652;DHT22;43480;53.116;6.734;2023-01-25T10:34:43;-0.20;99.90
57652;DHT22;43480;53.116;6.734;2023-01-25T10:37:14;-0.20;99.90
57652;DHT22;43480;53.116;6.734;2023-01-25T10:39:51;-0.20;99.90
57652;DHT22;43480;53.116;6.734;2023-01-25T10:42:19;-0.20;99.90
57652;DHT22;43480;53.116;6.734;2023-01-25T10:44:46;-0.10;99.90
57652;DHT22;43480;53.116;6.734;2023-01-25T10:52:18;-0.10;99.90
57652;DHT22;43480;53.116;6.734;2023-01-25T10:54:45;-0.10;99.90
57652;DHT22;43480;53.116;6.734;2023-01-25T10:57:12;-0.10;99.90
57652;DHT22;43480;53.116;6.734;2023-01-25T10:59:39;-0.10;99.90
57652;DHT22;43480;53.116;6.734;2023-01-25T11:02:20;-0.10;99.90
57652;DHT22;43480;53.116;6.734;2023-01-25T11:04:46;-0.10;99.90
57652;DHT22;43480;53.116;6.734;2023-01-25T11:07:24;-0.10;99.90
57652;DHT22;43480;53.116;6.734;2023-01-25T11:09:51;-0.10;99.90
57652;DHT22;43480;53.116;6.734;2023-01-25T11:12:17;-0.10;99.90
57652;DHT22;43480;53.116;6.734;2023-01-25T11:14:43;-0.10;99.90
57652;DHT22;43480;53.116;6.734;2023-01-25T11:17:22;-0.20;99.90
57652;DHT22;43480;53.116;6.734;2023-01-25T11:19:49;-0.10;99.90
57652;DHT22;43480;53.116;6.734;2023-01-25T11:22:28;-0.10;99.90
57652;DHT22;43480;53.116;6.734;2023-01-25T11:24:53;-0.10;99.90
57652;DHT22;43480;53.116;6.734;2023-01-25T11:27:23;0.00;99.90
57652;DHT22;43480;53.116;6.734;2023-01-25T11:32:29;0.00;99.90
57652;DHT22;43480;53.116;6.734;2023-01-25T11:34:55;0.00;99.90
57652;DHT22;43480;53.116;6.734;2023-01-25T11:38:07;0.10;99.90
57652;DHT22;43480;53.116;6.734;2023-01-25T11:45:15;0.10;99.90
57652;DHT22;43480;53.116;6.734;2023-01-25T11:50:30;0.20;99.90
57652;DHT22;43480;53.116;6.734;2023-01-25T12:05:59;0.10;99.90
57652;DHT22;43480;53.116;6.734;2023-01-25T12:08:39;0.10;99.90
57652;DHT22;43480;53.116;6.734;2023-01-25T12:11:15;0.10;99.90
57652;DHT22;43480;53.116;6.734;2023-01-25T12:14:09;0.10;99.90
57652;DHT22;43480;53.116;6.734;2023-01-25T12:19:33;0.10;99.90
57652;DHT22;43480;53.116;6.734;2023-01-25T12:22:01;0.10;99.90
57652;DHT22;43480;53.116;6.734;2023-01-25T12:25:29;0.10;99.90
57652;DHT22;43480;53.116;6.734;2023-01-25T12:29:50;0.10;99.90
57652;DHT22;43480;53.116;6.734;2023-01-25T12:32:43;0.10;99.90
57652;DHT22;43480;53.116;6.734;2023-01-25T12:37:40;0.20;99.90
57652;DHT22;43480;53.116;6.734;2023-01-25T12:40:21;0.20;99.90
57652;DHT22;43480;53.116;6.734;2023-01-25T12:42:51;0.30;99.90
57652;DHT22;43480;53.116;6.734;2023-01-25T12:45:27;0.30;99.90
57652;DHT22;43480;53.116;6.734;2023-01-25T12:47:59;0.40;99.90
57652;DHT22;43480;53.116;6.734;2023-01-25T12:50:59;0.40;99.90
57652;DHT22;43480;53.116;6.734;2023-01-25T12:55:49;0.40;99.90
57652;DHT22;43480;53.116;6.734;2023-01-25T12:58:27;0.40;99.90
57652;DHT22;43480;53.116;6.734;2023-01-25T13:00:59;0.50;99.90
57652;DHT22;43480;53.116;6.734;2023-01-25T13:03:34;0.50;99.90
57652;DHT22;43480;53.116;6.734;2023-01-25T13:08:41;0.50;99.90
57652;DHT22;43480;53.116;6.734;2023-01-25T13:11:12;0.60;99.90
57652;DHT22;43480;53.116;6.734;2023-01-25T13:13:40;0.60;99.90
57652;DHT22;43480;53.116;6.734;2023-01-25T13:18:47;0.70;99.90
57652;DHT22;43480;53.116;6.734;2023-01-25T13:24:10;0.70;99.90
57652;DHT22;43480;53.116;6.734;2023-01-25T13:26:37;0.70;99.90
57652;DHT22;43480;53.116;6.734;2023-01-25T13:29:02;0.70;99.90
57652;DHT22;43480;53.116;6.734;2023-01-25T13:34:03;0.70;99.90
57652;DHT22;43480;53.116;6.734;2023-01-25T13:36:36;0.60;99.90
57652;DHT22;43480;53.116;6.734;2023-01-25T13:42:13;0.60;99.90
57652;DHT22;43480;53.116;6.734;2023-01-25T13:44:44;0.60;99.90
57652;DHT22;43480;53.116;6.734;2023-01-25T13:47:18;0.60;99.90
57652;DHT22;43480;53.116;6.734;2023-01-25T13:49:52;0.60;99.90
57652;DHT22;43480;53.116;6.734;2023-01-25T13:52:20;0.60;99.90
57652;DHT22;43480;53.116;6.734;2023-01-25T13:54:47;0.60;99.90
57652;DHT22;43480;53.116;6.734;2023-01-25T13:57:14;0.60;99.90
57652;DHT22;43480;53.116;6.734;2023-01-25T13:59:40;0.60;99.90
57652;DHT22;43480;53.116;6.734;2023-01-25T14:02:19;0.60;99.90
57652;DHT22;43480;53.116;6.734;2023-01-25T14:04:46;0.60;99.90
57652;DHT22;43480;53.116;6.734;2023-01-25T14:07:16;0.60;99.90
57652;DHT22;43480;53.116;6.734;2023-01-25T14:09:42;0.60;99.90
57652;DHT22;43480;53.116;6.734;2023-01-25T14:12:09;0.50;99.90
57652;DHT22;43480;53.116;6.734;2023-01-25T14:14:35;0.50;99.90
57652;DHT22;43480;53.116;6.734;2023-01-25T14:19:36;0.60;99.90
57652;DHT22;43480;53.116;6.734;2023-01-25T14:25:03;0.50;99.90
57652;DHT22;43480;53.116;6.734;2023-01-25T14:27:31;0.50;99.90
57652;DHT22;43480;53.116;6.734;2023-01-25T14:29:57;0.50;99.90
57652;DHT22;43480;53.116;6.734;2023-01-25T14:32:23;0.60;99.90
57652;DHT22;43480;53.116;6.734;2023-01-25T14:34:49;0.60;99.90
57652;DHT22;43480;53.116;6.734;2023-01-25T14:37:16;0.60;99.90
57652;DHT22;43480;53.116;6.734;2023-01-25T14:39:42;0.60;99.90
57652;DHT22;43480;53.116;6.734;2023-01-25T14:42:07;0.50;99.90
57652;DHT22;43480;53.116;6.734;2023-01-25T14:44:33;0.60;99.90
57652;DHT22;43480;53.116;6.734;2023-01-25T14:49:43;0.50;99.90
57652;DHT22;43480;53.116;6.734;2023-01-25T14:52:09;0.60;99.90
57652;DHT22;43480;53.116;6.734;2023-01-25T14:59:52;0.60;99.90
57652;DHT22;43480;53.116;6.734;2023-01-25T15:07:42;0.50;99.90
57652;DHT22;43480;53.116;6.734;2023-01-25T15:10:24;0.60;99.90
57652;DHT22;43480;53.116;6.734;2023-01-25T15:15:23;0.50;99.90
57652;DHT22;43480;53.116;6.734;2023-01-25T15:17:49;0.50;99.90
57652;DHT22;43480;53.116;6.734;2023-01-25T15:20:24;0.50;99.90
57652;DHT22;43480;53.116;6.734;2023-01-25T15:22:50;0.50;99.90
57652;DHT22;43480;53.116;6.734;2023-01-25T15:25:16;0.50;99.90
57652;DHT22;43480;53.116;6.734;2023-01-25T15:27:41;0.40;99.90
57652;DHT22;43480;53.116;6.734;2023-01-25T15:30:13;0.40;99.90
57652;DHT22;43480;53.116;6.734;2023-01-25T15:32:39;0.40;99.90
57652;DHT22;43480;53.116;6.734;2023-01-25T15:35:05;0.40;99.90
57652;DHT22;43480;53.116;6.734;2023-01-25T15:37:31;0.40;99.90
57652;DHT22;43480;53.116;6.734;2023-01-25T15:39:57;0.40;99.90
57652;DHT22;43480;53.116;6.734;2023-01-25T15:42:22;0.40;99.90
57652;DHT22;43480;53.116;6.734;2023-01-25T15:44:48;0.30;99.90
57652;DHT22;43480;53.116;6.734;2023-01-25T15:47:13;0.30;99.90
57652;DHT22;43480;53.116;6.734;2023-01-25T15:49:39;0.30;99.90
57652;DHT22;43480;53.116;6.734;2023-01-25T15:52:04;0.30;99.90
57652;DHT22;43480;53.116;6.734;2023-01-25T15:54:30;0.30;99.90
57652;DHT22;43480;53.116;6.734;2023-01-25T15:56:56;0.30;99.90
57652;DHT22;43480;53.116;6.734;2023-01-25T15:59:23;0.30;99.90
57652;DHT22;43480;53.116;6.734;2023-01-25T16:01:49;0.30;99.90
57652;DHT22;43480;53.116;6.734;2023-01-25T16:04:14;0.20;99.90
57652;DHT22;43480;53.116;6.734;2023-01-25T16:09:13;0.20;99.90
57652;DHT22;43480;53.116;6.734;2023-01-25T16:11:39;0.20;99.90
57652;DHT22;43480;53.116;6.734;2023-01-25T16:14:04;0.20;99.90
57652;DHT22;43480;53.116;6.734;2023-01-25T16:16:30;0.20;99.90
57652;DHT22;43480;53.116;6.734;2023-01-25T16:18:57;0.20;99.90
57652;DHT22;43480;53.116;6.734;2023-01-25T16:21:23;0.20;99.90
57652;DHT22;43480;53.116;6.734;2023-01-25T16:23:48;0.20;99.90
57652;DHT22;43480;53.116;6.734;2023-01-25T16:26:16;0.20;99.90
57652;DHT22;43480;53.116;6.734;2023-01-25T16:28:42;0.20;99.90
57652;DHT22;43480;53.116;6.734;2023-01-25T16:31:11;0.20;99.90
57652;DHT22;43480;53.116;6.734;2023-01-25T16:33:37;0.20;99.90
57652;DHT22;43480;53.116;6.734;2023-01-25T16:36:08;0.20;99.90
57652;DHT22;43480;53.116;6.734;2023-01-25T16:38:36;0.10;99.90
57652;DHT22;43480;53.116;6.734;2023-01-25T16:41:02;0.20;99.90
57652;DHT22;43480;53.116;6.734;2023-01-25T16:43:27;0.10;99.90
57652;DHT22;43480;53.116;6.734;2023-01-25T16:45:56;0.10;99.90
57652;DHT22;43480;53.116;6.734;2023-01-25T16:48:22;0.10;99.90
57652;DHT22;43480;53.116;6.734;2023-01-25T16:50:49;0.10;99.90
57652;DHT22;43480;53.116;6.734;2023-01-25T16:53:14;0.10;99.90
57652;DHT22;43480;53.116;6.734;2023-01-25T16:55:40;0.10;99.90
57652;DHT22;43480;53.116;6.734;2023-01-25T16:58:06;0.10;99.90
57652;DHT22;43480;53.116;6.734;2023-01-25T17:00:31;0.10;99.90
57652;DHT22;43480;53.116;6.734;2023-01-25T17:02:57;0.10;99.90
57652;DHT22;43480;53.116;6.734;2023-01-25T17:05:23;0.10;99.90
57652;DHT22;43480;53.116;6.734;2023-01-25T17:07:49;0.10;99.90
57652;DHT22;43480;53.116;6.734;2023-01-25T17:10:15;0.10;99.90
57652;DHT22;43480;53.116;6.734;2023-01-25T17:12:40;0.10;99.90
57652;DHT22;43480;53.116;6.734;2023-01-25T17:15:07;0.10;99.90
57652;DHT22;43480;53.116;6.734;2023-01-25T17:17:33;0.20;99.90
57652;DHT22;43480;53.116;6.734;2023-01-25T17:19:59;0.20;99.90
57652;DHT22;43480;53.116;6.734;2023-01-25T17:22:25;0.10;99.90